createdAt,value
2019-04-11T00:01:33.992Z,27.98
2019-04-11T00:03:54.781Z,31.75
2019-04-11T00:06:25.677Z,32.13
2019-04-11T00:08:56.471Z,30.55
2019-04-11T00:11:28.164Z,30.25
2019-04-11T00:13:59.870Z,29.25
2019-04-11T00:16:31.578Z,34.35
2019-04-11T00:19:03.132Z,30.35
2019-04-11T00:21:34.917Z,33.73
2019-04-11T00:24:06.992Z,32.10
2019-04-11T00:26:40.185Z,34.35
2019-04-11T00:29:12.447Z,34.85
2019-04-11T00:31:43.193Z,35.38
2019-04-11T00:34:14.993Z,34.23
2019-04-11T00:36:46.337Z,34.18
2019-04-11T00:39:17.334Z,30.55
2019-04-11T00:41:48.265Z,33.33
2019-04-11T00:44:19.210Z,35.80
2019-04-11T00:46:50.812Z,38.60
2019-04-11T00:49:22.052Z,39.30
2019-04-11T00:51:52.970Z,38.05
2019-04-11T00:54:24.768Z,40.35
2019-04-11T00:56:56.675Z,39.78
2019-04-11T00:59:28.624Z,39.33
2019-04-11T01:01:58.906Z,40.05
2019-04-11T01:04:29.671Z,43.40
2019-04-11T01:07:00.706Z,38.05
2019-04-11T01:09:31.090Z,38.58
2019-04-11T01:12:02.623Z,48.98
2019-04-11T01:14:34.194Z,48.00
2019-04-11T01:17:18.056Z,51.28
2019-04-11T01:19:49.027Z,59.27
2019-04-11T01:22:20.233Z,59.18
2019-04-11T01:24:50.663Z,58.48
2019-04-11T01:27:21.626Z,60.40
2019-04-11T01:29:52.603Z,69.35
2019-04-11T01:32:22.893Z,62.35
2019-04-11T01:34:53.386Z,61.80
2019-04-11T01:37:23.951Z,55.52
2019-04-11T01:39:57.229Z,57.83
2019-04-11T01:42:27.621Z,56.25
2019-04-11T01:44:58.268Z,55.38
2019-04-11T01:47:33.495Z,51.98
2019-04-11T01:50:05.006Z,49.70
2019-04-11T01:52:36.190Z,46.70
2019-04-11T01:55:08.231Z,44.58
2019-04-11T01:57:38.706Z,47.00
2019-04-11T02:00:12.219Z,42.70
2019-04-11T02:02:50.786Z,41.88
2019-04-11T02:05:23.295Z,41.20
2019-04-11T02:07:53.521Z,53.00
2019-04-11T02:10:24.463Z,52.33
2019-04-11T02:12:55.379Z,51.73
2019-04-11T02:15:26.897Z,48.63
2019-04-11T02:17:59.028Z,44.13
2019-04-11T02:20:29.455Z,38.75
2019-04-11T02:23:01.020Z,39.30
2019-04-11T02:25:32.870Z,36.85
2019-04-11T02:28:06.561Z,40.10
2019-04-11T02:30:39.366Z,37.77
2019-04-11T02:33:11.691Z,37.83
2019-04-11T02:35:42.771Z,37.93
2019-04-11T02:38:14.929Z,36.23
2019-04-11T02:40:58.784Z,35.50
2019-04-11T02:43:29.609Z,36.47
2019-04-11T02:46:13.046Z,36.53
2019-04-11T02:48:33.190Z,36.03
2019-04-11T02:51:07.467Z,37.03
2019-04-11T02:53:38.920Z,37.80
2019-04-11T02:56:11.660Z,36.20
2019-04-11T02:58:41.916Z,40.10
2019-04-11T03:01:13.038Z,44.38
2019-04-11T03:03:45.531Z,50.23
2019-04-11T03:06:17.513Z,47.50
2019-04-11T03:08:48.935Z,44.00
2019-04-11T03:11:21.858Z,38.98
2019-04-11T03:13:55.100Z,37.40
2019-04-11T03:16:41.298Z,39.65
2019-04-11T03:19:19.798Z,37.70
2019-04-11T03:21:36.309Z,36.70
2019-04-11T03:24:06.337Z,38.30
2019-04-11T03:26:37.791Z,34.98
2019-04-11T03:29:09.103Z,36.10
2019-04-11T03:34:58.827Z,40.50
2019-04-11T03:39:37.518Z,36.28
2019-04-11T03:42:07.971Z,35.25
2019-04-11T03:44:29.193Z,34.27
2019-04-11T03:47:11.308Z,35.63
2019-04-11T03:49:36.653Z,36.68
2019-04-11T03:52:01.091Z,35.45
2019-04-11T03:54:31.860Z,36.15
2019-04-11T03:57:03.665Z,36.23
2019-04-11T03:59:36.649Z,34.95
2019-04-11T04:02:08.042Z,36.30
2019-04-11T04:04:39.321Z,36.48
2019-04-11T04:07:12.443Z,35.13
2019-04-11T04:09:43.985Z,34.23
2019-04-11T04:12:16.639Z,31.82
2019-04-11T04:14:49.538Z,33.65
2019-04-11T04:17:32.996Z,33.90
2019-04-11T04:20:15.158Z,34.60
2019-04-11T04:22:57.242Z,33.23
2019-04-11T04:25:28.594Z,30.45
2019-04-11T04:28:00.521Z,32.93
2019-04-11T04:30:31.255Z,32.42
2019-04-11T04:33:02.896Z,33.42
2019-04-11T04:35:33.898Z,32.80
2019-04-11T04:38:05.264Z,33.28
2019-04-11T04:40:51.062Z,33.30
2019-04-11T04:43:11.851Z,29.23
2019-04-11T04:45:58.072Z,31.75
2019-04-11T04:48:18.297Z,31.02
2019-04-11T04:50:46.787Z,32.63
2019-04-11T04:53:19.965Z,29.32
2019-04-11T04:55:52.183Z,47.30
2019-04-11T04:58:24.357Z,37.73
2019-04-11T05:00:56.713Z,32.60
2019-04-11T05:03:27.295Z,37.30
2019-04-11T05:06:00.859Z,32.50
2019-04-11T05:08:32.555Z,32.25
2019-04-11T05:11:04.521Z,31.77
2019-04-11T05:13:36.546Z,32.83
2019-04-11T05:16:16.841Z,32.98
2019-04-11T05:18:39.712Z,35.63
2019-04-11T05:21:10.728Z,32.83
2019-04-11T05:23:41.791Z,30.85
2019-04-11T05:26:11.969Z,34.23
2019-04-11T05:28:43.673Z,32.88
2019-04-11T05:31:14.544Z,33.48
2019-04-11T05:33:45.632Z,37.67
2019-04-11T05:36:16.608Z,35.78
2019-04-11T05:38:46.845Z,32.90
2019-04-11T05:41:17.705Z,31.27
2019-04-11T05:43:49.430Z,35.10
2019-04-11T05:46:31.368Z,34.78
2019-04-11T05:48:57.965Z,37.48
2019-04-11T05:51:26.429Z,33.40
2019-04-11T05:53:59.700Z,33.75
2019-04-11T05:56:33.426Z,33.60
2019-04-11T05:59:18.866Z,34.23
2019-04-11T06:01:55.013Z,32.93
2019-04-11T06:04:34.390Z,33.08
2019-04-11T06:07:13.134Z,75.17
2019-04-11T06:09:46.279Z,69.25
2019-04-11T06:12:22.407Z,37.15
2019-04-11T06:15:10.032Z,33.58
2019-04-11T06:17:43.576Z,30.50
2019-04-11T06:20:22.071Z,31.95
2019-04-11T06:23:06.691Z,30.00
2019-04-11T06:25:55.505Z,32.10
2019-04-11T06:28:27.657Z,28.45
2019-04-11T06:31:07.588Z,29.07
2019-04-11T06:33:40.702Z,29.75
2019-04-11T06:36:26.623Z,30.90
2019-04-11T06:39:02.906Z,28.45
2019-04-11T06:41:50.645Z,29.85
2019-04-11T06:44:28.073Z,25.90
2019-04-11T06:47:03.859Z,30.57
2019-04-11T06:49:53.035Z,24.90
2019-04-11T06:52:26.587Z,26.20
2019-04-11T06:55:08.803Z,25.57
2019-04-11T06:57:42.331Z,26.80
2019-04-11T07:00:34.153Z,23.60
2019-04-11T07:03:17.410Z,22.10
2019-04-11T07:05:40.641Z,18.05
2019-04-11T07:08:11.701Z,15.80
2019-04-11T07:10:44.700Z,14.28
2019-04-11T07:13:22.800Z,15.58
2019-04-11T07:15:54.735Z,12.85
2019-04-11T07:18:36.347Z,14.25
2019-04-11T07:21:08.484Z,12.25
2019-04-11T07:23:57.572Z,12.47
2019-04-11T07:26:30.062Z,10.43
2019-04-11T07:29:19.547Z,11.00
2019-04-11T07:32:11.548Z,15.60
2019-04-11T07:34:56.618Z,55.15
2019-04-11T07:37:32.635Z,15.85
2019-04-11T07:40:15.561Z,9.60
2019-04-11T07:42:52.797Z,5.37
2019-04-11T07:45:41.790Z,7.58
2019-04-11T07:48:15.026Z,8.25
2019-04-11T07:50:46.503Z,7.42
2019-04-11T07:53:19.745Z,7.17
2019-04-11T07:55:51.046Z,9.90
2019-04-11T07:58:26.400Z,8.60
2019-04-11T08:01:08.317Z,9.93
2019-04-11T08:03:57.926Z,8.93
2019-04-11T08:06:31.063Z,9.28
2019-04-11T08:09:09.759Z,8.00
2019-04-11T08:11:42.161Z,9.30
2019-04-11T08:14:14.527Z,9.18
2019-04-11T08:16:57.422Z,8.13
2019-04-11T08:19:35.875Z,7.85
2019-04-11T08:22:08.464Z,9.48
2019-04-11T08:24:50.984Z,7.22
2019-04-11T08:27:27.381Z,9.63
2019-04-11T08:30:00.327Z,9.18
2019-04-11T08:32:49.903Z,9.00
2019-04-11T08:35:26.259Z,10.28
2019-04-11T08:38:02.770Z,9.50
2019-04-11T08:40:35.765Z,12.73
2019-04-11T08:43:08.258Z,10.48
2019-04-11T08:45:40.474Z,15.20
2019-04-11T08:48:12.946Z,12.68
2019-04-11T08:50:45.374Z,11.83
2019-04-11T08:53:18.557Z,11.43
2019-04-11T08:56:01.912Z,8.58
2019-04-11T08:58:40.623Z,10.78
2019-04-11T09:01:16.328Z,10.00
2019-04-11T09:04:01.300Z,8.70
2019-04-11T09:06:25.254Z,8.73
2019-04-11T09:09:07.017Z,9.40
2019-04-11T09:11:40.613Z,8.63
2019-04-11T09:14:30.486Z,8.75
2019-04-11T09:17:14.712Z,9.93
2019-04-11T09:19:50.387Z,10.85
2019-04-11T09:22:33.254Z,8.00
2019-04-11T09:25:11.043Z,6.83
2019-04-11T09:27:58.738Z,9.10
2019-04-11T09:30:41.189Z,11.08
2019-04-11T09:33:25.978Z,8.05
2019-04-11T09:35:57.696Z,8.43
2019-04-11T09:38:30.574Z,10.05
2019-04-11T09:41:03.944Z,8.60
2019-04-11T09:43:36.333Z,14.47
2019-04-11T09:46:14.556Z,9.80
2019-04-11T09:48:50.528Z,9.40
2019-04-11T09:51:23.447Z,9.70
2019-04-11T09:54:06.169Z,10.53
2019-04-11T09:56:41.504Z,10.78
2019-04-11T09:59:17.027Z,12.13
2019-04-11T10:02:06.024Z,10.08
2019-04-11T10:04:39.260Z,9.50
2019-04-11T10:07:28.290Z,9.30
2019-04-11T10:10:04.420Z,9.25
2019-04-11T10:12:40.503Z,7.92
2019-04-11T10:15:13.593Z,8.83
2019-04-11T10:18:03.151Z,7.80
2019-04-11T10:20:35.249Z,6.80
2019-04-11T10:23:24.914Z,9.13
2019-04-11T10:25:57.013Z,7.12
2019-04-11T10:28:44.463Z,7.87
2019-04-11T10:31:15.113Z,6.72
2019-04-11T10:33:47.326Z,8.75
2019-04-11T10:36:25.598Z,8.53
2019-04-11T10:39:04.785Z,8.95
2019-04-11T10:41:39.951Z,8.90
2019-04-11T10:44:12.419Z,10.45
2019-04-11T10:46:53.742Z,9.18
2019-04-11T10:49:32.409Z,8.05
2019-04-11T10:52:20.391Z,8.95
2019-04-11T10:55:15.957Z,9.73
2019-04-11T10:57:48.732Z,9.15
2019-04-11T11:00:31.136Z,9.38
2019-04-11T11:03:04.052Z,8.30
2019-04-11T11:05:42.988Z,9.60
2019-04-11T11:08:17.346Z,9.18
2019-04-11T11:10:50.751Z,10.55
2019-04-11T11:13:40.770Z,11.55
2019-04-11T11:16:12.216Z,9.13
2019-04-11T11:19:32.280Z,8.70
2019-04-11T11:21:35.654Z,10.60
2019-04-11T11:24:28.205Z,7.80
2019-04-11T11:27:02.903Z,8.90
2019-04-11T11:29:35.033Z,7.42
2019-04-11T11:32:07.412Z,7.53
2019-04-11T11:34:40.798Z,7.50
2019-04-11T11:37:25.210Z,7.33
2019-04-11T11:40:02.733Z,8.60
2019-04-11T11:42:40.322Z,8.30
2019-04-11T11:45:13.158Z,8.13
2019-04-11T11:47:48.998Z,10.40
2019-04-11T11:50:23.280Z,7.97
2019-04-11T11:53:07.351Z,6.95
2019-04-11T11:55:45.317Z,7.22
2019-04-11T11:58:21.575Z,9.65
2019-04-11T12:00:55.565Z,26.25
2019-04-11T12:03:33.542Z,8.63
2019-04-11T12:06:07.130Z,7.05
2019-04-11T12:08:58.233Z,7.75
2019-04-11T12:11:30.262Z,6.25
2019-04-11T12:14:11.770Z,5.67
2019-04-11T12:17:04.727Z,3.92
2019-04-11T12:19:44.654Z,3.65
2019-04-11T12:22:06.230Z,4.12
2019-04-11T12:24:50.378Z,3.83
2019-04-11T12:27:22.588Z,5.15
2019-04-11T12:29:54.476Z,5.42
2019-04-11T12:32:30.458Z,5.00
2019-04-11T12:35:19.896Z,5.10
2019-04-11T12:37:53.354Z,4.00
2019-04-11T12:40:43.555Z,4.47
2019-04-11T12:43:15.084Z,3.95
2019-04-11T12:45:51.184Z,4.20
2019-04-11T12:48:22.620Z,4.00
2019-04-11T12:51:00.044Z,4.17
2019-04-11T12:53:30.662Z,4.33
2019-04-11T12:56:05.143Z,2.62
2019-04-11T12:58:36.883Z,2.47
2019-04-11T13:01:09.098Z,3.62
2019-04-11T13:03:50.009Z,3.62
2019-04-11T13:06:38.320Z,2.90
2019-04-11T13:09:14.273Z,5.08
2019-04-11T13:11:46.592Z,2.87
2019-04-11T13:14:30.952Z,2.92
2019-04-11T13:17:08.408Z,2.27
2019-04-11T13:20:04.704Z,17.17
2019-04-11T13:22:30.038Z,6.42
2019-04-11T13:25:07.998Z,2.67
2019-04-11T13:27:40.164Z,2.62
2019-04-11T13:30:15.648Z,3.47
2019-04-11T13:32:47.952Z,3.25
2019-04-11T13:35:23.177Z,3.17
2019-04-11T13:38:10.558Z,3.75
2019-04-11T13:40:45.754Z,4.40
2019-04-11T13:43:20.519Z,4.75
2019-04-11T13:45:55.883Z,5.47
2019-04-11T13:48:44.347Z,4.55
2019-04-11T13:51:19.916Z,2.67
2019-04-11T13:53:55.466Z,4.33
2019-04-11T13:56:27.642Z,4.08
2019-04-11T13:59:05.688Z,3.25
2019-04-11T14:01:37.793Z,4.25
2019-04-11T14:04:21.487Z,4.25
2019-04-11T14:06:52.430Z,3.98
2019-04-11T14:09:24.728Z,4.22
2019-04-11T14:11:55.540Z,5.30
2019-04-11T14:14:27.466Z,3.60
2019-04-11T14:16:59.580Z,4.92
2019-04-11T14:19:31.908Z,4.08
2019-04-11T14:22:02.826Z,4.55
2019-04-11T14:24:41.564Z,3.98
2019-04-11T14:27:15.224Z,4.05
2019-04-11T14:29:46.958Z,4.90
2019-04-11T14:32:19.082Z,4.85
2019-04-11T14:34:57.119Z,6.17
2019-04-11T14:37:38.904Z,5.08
2019-04-11T14:40:28.231Z,4.60
2019-04-11T14:43:16.131Z,4.80
2019-04-11T14:45:48.605Z,4.35
2019-04-11T14:48:37.824Z,5.05
2019-04-11T14:51:15.978Z,5.22
2019-04-11T14:54:03.832Z,4.20
2019-04-11T14:56:42.289Z,4.60
2019-04-11T14:59:30.879Z,6.65
2019-04-11T15:02:03.169Z,7.75
2019-04-11T15:04:43.686Z,5.55
2019-04-11T15:07:15.492Z,4.08
2019-04-11T15:09:47.843Z,4.67
2019-04-11T15:12:36.511Z,5.10
2019-04-11T15:15:19.787Z,4.47
2019-04-11T15:17:50.484Z,4.08
2019-04-11T15:20:34.817Z,4.20
2019-04-11T15:23:07.612Z,3.95
2019-04-11T15:25:45.627Z,8.05
2019-04-11T15:28:17.920Z,7.03
2019-04-11T15:30:53.461Z,7.67
2019-04-11T15:33:41.684Z,5.45
2019-04-11T15:36:27.861Z,5.97
2019-04-11T15:39:16.390Z,4.90
2019-04-11T15:41:48.716Z,8.08
2019-04-11T15:44:36.828Z,5.37
2019-04-11T15:47:18.802Z,5.17
2019-04-11T15:50:05.769Z,4.40
2019-04-11T15:52:37.944Z,4.90
2019-04-11T15:55:10.138Z,3.67
2019-04-11T15:57:43.023Z,6.05
2019-04-11T16:00:19.149Z,2.83
2019-04-11T16:03:03.574Z,3.42
2019-04-11T16:05:35.885Z,4.20
2019-04-11T16:08:11.245Z,5.30
2019-04-11T16:10:52.525Z,5.35
2019-04-11T16:13:41.660Z,7.37
2019-04-11T16:16:12.775Z,5.78
2019-04-11T16:19:00.227Z,5.20
2019-04-11T16:21:32.475Z,8.73
2019-04-11T16:24:04.749Z,8.15
2019-04-11T16:26:46.147Z,11.88
2019-04-11T16:29:24.162Z,6.87
2019-04-11T16:31:56.480Z,9.33
2019-04-11T16:34:28.118Z,6.90
2019-04-11T16:36:58.902Z,7.62
2019-04-11T16:39:33.007Z,6.20
2019-04-11T16:42:04.980Z,5.72
2019-04-11T16:44:54.700Z,5.15
2019-04-11T16:47:31.058Z,5.30
2019-04-11T16:50:01.094Z,7.55
2019-04-11T16:52:33.128Z,6.83
2019-04-11T16:55:03.880Z,6.55
2019-04-11T16:57:34.919Z,6.95
2019-04-11T17:00:09.836Z,4.85
2019-04-11T17:02:40.138Z,9.08
2019-04-11T17:05:12.068Z,7.90
2019-04-11T17:08:00.703Z,8.00
2019-04-11T17:10:48.979Z,7.08
2019-04-11T17:13:19.692Z,8.18
2019-04-11T17:15:49.848Z,10.43
2019-04-11T17:18:20.605Z,9.58
2019-04-11T17:20:51.231Z,10.65
2019-04-11T17:23:21.847Z,7.50
2019-04-11T17:25:53.589Z,8.70
2019-04-11T17:28:25.385Z,6.40
2019-04-11T17:30:56.062Z,7.03
2019-04-11T17:33:28.572Z,9.50
2019-04-11T17:36:01.991Z,7.08
2019-04-11T17:38:30.342Z,8.10
2019-04-11T17:41:00.523Z,8.40
2019-04-11T17:43:31.138Z,7.97
2019-04-11T17:46:01.179Z,6.78
2019-04-11T17:48:31.916Z,6.25
2019-04-11T17:51:04.910Z,9.45
2019-04-11T17:53:34.305Z,7.90
2019-04-11T17:56:05.311Z,7.35
2019-04-11T17:58:35.356Z,7.78
2019-04-11T18:01:07.454Z,12.00
2019-04-11T18:03:41.821Z,12.80
2019-04-11T18:06:10.509Z,8.60
2019-04-11T18:08:42.335Z,8.40
2019-04-11T18:11:13.003Z,10.88
2019-04-11T18:13:43.729Z,10.70
2019-04-11T18:16:14.391Z,9.55
2019-04-11T18:18:45.154Z,8.43
2019-04-11T18:21:15.854Z,11.53
2019-04-11T18:23:49.842Z,10.75
2019-04-11T18:26:19.035Z,6.97
2019-04-11T18:28:52.096Z,10.15
2019-04-11T18:31:25.018Z,9.50
2019-04-11T18:33:56.245Z,8.18
2019-04-11T18:36:27.017Z,7.75
2019-04-11T18:38:57.278Z,7.87
2019-04-11T18:41:28.036Z,9.83
2019-04-11T18:43:58.701Z,11.15
2019-04-11T18:46:28.801Z,8.88
2019-04-11T18:48:59.065Z,9.95
2019-04-11T18:51:30.410Z,11.40
2019-04-11T18:54:00.751Z,9.08
2019-04-11T18:56:31.565Z,12.60
2019-04-11T18:59:03.739Z,9.10
2019-04-11T19:01:38.878Z,10.43
2019-04-11T19:04:06.968Z,11.20
2019-04-11T19:06:37.710Z,11.83
2019-04-11T19:09:13.811Z,10.03
2019-04-11T19:11:43.901Z,11.38
2019-04-11T19:14:16.139Z,10.60
2019-04-11T19:16:47.471Z,13.58
2019-04-11T19:19:18.414Z,12.55
2019-04-11T19:21:51.134Z,11.63
2019-04-11T19:24:21.738Z,12.70
2019-04-11T19:26:52.084Z,9.53
2019-04-11T19:29:24.766Z,9.38
2019-04-11T19:31:54.485Z,10.63
2019-04-11T19:34:26.137Z,9.98
2019-04-11T19:36:56.796Z,13.18
2019-04-11T19:39:27.434Z,8.88
2019-04-11T19:41:57.544Z,15.35
2019-04-11T19:44:27.597Z,8.78
2019-04-11T19:49:33.781Z,8.25
2019-04-11T19:52:04.609Z,7.22
2019-04-11T19:54:34.694Z,9.23
2019-04-11T19:57:06.312Z,9.27
2019-04-11T19:59:36.257Z,8.35
2019-04-11T20:02:09.991Z,9.93
2019-04-11T20:04:40.933Z,9.90
2019-04-11T20:07:11.105Z,12.10
2019-04-11T20:09:41.228Z,10.40
2019-04-11T20:12:11.960Z,8.00
2019-04-11T20:14:41.912Z,8.85
2019-04-11T20:17:12.584Z,8.73
2019-04-11T20:19:42.544Z,9.63
2019-04-11T20:22:13.274Z,9.75
2019-04-11T20:24:46.734Z,11.10
2019-04-11T20:27:19.961Z,8.48
2019-04-11T20:29:51.006Z,9.73
2019-04-11T20:32:19.417Z,8.63
2019-04-11T20:34:50.869Z,12.65
2019-04-11T20:37:24.348Z,10.40
2019-04-11T20:39:53.890Z,10.35
2019-04-11T20:42:24.771Z,11.57
2019-04-11T20:44:58.256Z,10.08
2019-04-11T20:47:30.185Z,13.45
2019-04-11T20:50:07.296Z,12.78
2019-04-11T20:52:33.921Z,11.33
2019-04-11T20:55:08.864Z,12.98
2019-04-11T20:57:40.444Z,12.93
2019-04-11T21:00:12.306Z,13.22
2019-04-11T21:02:41.921Z,12.33
2019-04-11T21:05:12.689Z,12.75
2019-04-11T21:07:43.962Z,13.32
2019-04-11T21:10:14.634Z,13.75
2019-04-11T21:12:45.381Z,16.25
2019-04-11T21:15:15.474Z,14.98
2019-04-11T21:17:46.348Z,15.55
2019-04-11T21:20:16.362Z,15.72
2019-04-11T21:22:46.439Z,17.42
2019-04-11T21:25:16.417Z,17.53
2019-04-11T21:27:48.305Z,17.42
2019-04-11T21:30:18.588Z,17.12
2019-04-11T21:32:48.700Z,21.93
2019-04-11T21:35:19.265Z,17.37
2019-04-11T21:37:49.498Z,17.60
2019-04-11T21:40:20.117Z,18.95
2019-04-11T21:42:50.412Z,16.30
2019-04-11T21:45:21.036Z,17.82
2019-04-11T21:47:51.721Z,17.85
2019-04-11T21:50:22.885Z,22.30
2019-04-11T21:52:53.657Z,24.10
2019-04-11T21:55:23.616Z,21.90
2019-04-11T21:57:53.855Z,21.00
2019-04-11T22:00:28.444Z,20.50
2019-04-11T22:03:00.155Z,20.75
2019-04-11T22:05:30.312Z,20.55
2019-04-11T22:08:00.936Z,22.63
2019-04-11T22:10:33.369Z,23.23
2019-04-11T22:13:03.646Z,21.80
2019-04-11T22:15:33.891Z,23.42
2019-04-11T22:18:04.079Z,24.40
2019-04-11T22:20:34.250Z,22.87
2019-04-11T22:23:04.323Z,21.42
2019-04-11T22:25:34.429Z,23.60
2019-04-11T22:28:05.817Z,21.37
2019-04-11T22:30:35.968Z,24.97
2019-04-11T22:33:10.692Z,26.77
2019-04-11T22:35:42.252Z,28.65
2019-04-11T22:38:12.333Z,25.00
2019-04-11T22:40:42.318Z,25.65
2019-04-11T22:43:24.195Z,27.02
2019-04-11T22:45:46.361Z,24.47
2019-04-11T22:48:17.148Z,27.73
2019-04-11T22:50:47.139Z,28.02
2019-04-11T22:53:18.473Z,27.45
2019-04-11T22:55:48.540Z,28.90
2019-04-11T22:58:19.261Z,30.50
2019-04-11T23:00:51.651Z,30.30
2019-04-11T23:03:32.841Z,30.72
2019-04-11T23:06:03.416Z,27.48
2019-04-11T23:08:33.596Z,29.17
2019-04-11T23:11:03.967Z,29.20
2019-04-11T23:13:34.842Z,32.38
2019-04-11T23:16:05.123Z,26.93
2019-04-11T23:18:36.322Z,28.40
2019-04-11T23:21:06.381Z,26.70
2019-04-11T23:23:36.492Z,28.33
2019-04-11T23:26:06.543Z,31.57
2019-04-11T23:28:36.743Z,25.40
2019-04-11T23:31:07.331Z,29.55
2019-04-11T23:33:37.517Z,24.82
2019-04-11T23:36:09.067Z,28.25
2019-04-11T23:38:39.753Z,27.75
2019-04-11T23:41:09.824Z,28.20
2019-04-11T23:43:40.584Z,29.30
2019-04-11T23:46:11.242Z,28.62
2019-04-11T23:48:41.992Z,25.97
2019-04-11T23:51:12.168Z,27.20
2019-04-11T23:53:42.837Z,29.25
2019-04-11T23:56:13.001Z,26.40
2019-04-11T23:58:43.150Z,25.52
